CheckWX is a tool to help pilots better visualize weather data.  It is not intended as a substitute for an official pre-flight weather briefing.

11:12:41 UTC

KBWI TAF
Baltimore / Washington International Thurgood Marshall Airport
Baltimore, Maryland, USA
KBWI 170834Z 1709/1812 05009KT P6SM SCT050 BKN100 FM171300 08008KT P6SM BKN050 FM172100 07007KT P6SM SCT100 FM180300 VRB03KT P6SM SKC

Sep-17@
09:00 UTC

Sep-17 @ 09:00 UTC

Sep-17@
13:00 UTC

Sep-17 @ 13:00 UTC

KBWI 170834Z 1709/1812 05009KT P6SM SCT050 BKN100
Wind
  • 050° at 9 KTS
Cloud Levels
  • Scattered at 5,000' AGL
  • Broken at 10,000' AGL

Sep-17@
13:00 UTC

Sep-17 @ 13:00 UTC

Sep-17@
21:00 UTC

Sep-17 @ 21:00 UTC

FM171300 08008KT P6SM BKN050

From

From Standard forecast or significant change

Wind
  • 080° at 8 KTS
Cloud Levels
  • Broken at 5,000' AGL

Sep-17@
21:00 UTC

Sep-17 @ 21:00 UTC

Sep-18@
03:00 UTC

Sep-18 @ 03:00 UTC

FM172100 07007KT P6SM SCT100

From

From Standard forecast or significant change

Wind
  • 070° at 7 KTS
Cloud Levels
  • Scattered at 10,000' AGL

Sep-18@
03:00 UTC

Sep-18 @ 03:00 UTC

Sep-18@
12:00 UTC

Sep-18 @ 12:00 UTC

FM180300 VRB03KT P6SM SKC

From

From Standard forecast or significant change

Wind
  • Variable at 3 KTS
Cloud Levels
  • Clear skies